sensor_id;sensor_type;location;lat;lon;timestamp;P1;durP1;ratioP1;P2;durP2;ratioP2
32200;SDS011;18701;45.588;5.288;2023-04-03T00:00:55;2.50;;;1.45;;
32200;SDS011;18701;45.588;5.288;2023-04-03T00:03:22;4.80;;;1.95;;
32200;SDS011;18701;45.588;5.288;2023-04-03T00:05:47;3.75;;;1.98;;
32200;SDS011;18701;45.588;5.288;2023-04-03T00:08:13;4.20;;;1.42;;
32200;SDS011;18701;45.588;5.288;2023-04-03T00:10:39;6.15;;;1.58;;
32200;SDS011;18701;45.588;5.288;2023-04-03T00:13:05;3.92;;;1.55;;
32200;SDS011;18701;45.588;5.288;2023-04-03T00:15:32;2.40;;;1.38;;
32200;SDS011;18701;45.588;5.288;2023-04-03T00:17:58;2.22;;;1.27;;
32200;SDS011;18701;45.588;5.288;2023-04-03T00:20:23;2.45;;;1.48;;
32200;SDS011;18701;45.588;5.288;2023-04-03T00:22:49;6.60;;;1.90;;
32200;SDS011;18701;45.588;5.288;2023-04-03T00:25:15;3.95;;;2.03;;
32200;SDS011;18701;45.588;5.288;2023-04-03T00:27:41;1.75;;;1.55;;
32200;SDS011;18701;45.588;5.288;2023-04-03T00:30:07;3.47;;;1.95;;
32200;SDS011;18701;45.588;5.288;2023-04-03T00:32:35;2.85;;;1.65;;
32200;SDS011;18701;45.588;5.288;2023-04-03T00:35:01;2.92;;;1.60;;
32200;SDS011;18701;45.588;5.288;2023-04-03T00:37:27;4.68;;;1.98;;
32200;SDS011;18701;45.588;5.288;2023-04-03T00:39:53;2.60;;;1.70;;
32200;SDS011;18701;45.588;5.288;2023-04-03T00:42:18;6.50;;;3.42;;
32200;SDS011;18701;45.588;5.288;2023-04-03T00:47:13;7.55;;;3.22;;
32200;SDS011;18701;45.588;5.288;2023-04-03T00:49:41;6.72;;;2.33;;
32200;SDS011;18701;45.588;5.288;2023-04-03T00:52:09;4.28;;;2.60;;
32200;SDS011;18701;45.588;5.288;2023-04-03T00:54:38;4.03;;;2.22;;
32200;SDS011;18701;45.588;5.288;2023-04-03T00:57:07;3.33;;;2.38;;
32200;SDS011;18701;45.588;5.288;2023-04-03T00:59:36;5.20;;;2.60;;
32200;SDS011;18701;45.588;5.288;2023-04-03T01:02:06;4.00;;;2.53;;
32200;SDS011;18701;45.588;5.288;2023-04-03T01:04:36;3.67;;;2.40;;
32200;SDS011;18701;45.588;5.288;2023-04-03T01:07:05;5.53;;;2.38;;
32200;SDS011;18701;45.588;5.288;2023-04-03T01:09:31;3.60;;;2.33;;
32200;SDS011;18701;45.588;5.288;2023-04-03T01:12:17;5.57;;;2.53;;
32200;SDS011;18701;45.588;5.288;2023-04-03T01:14:44;4.13;;;2.15;;
32200;SDS011;18701;45.588;5.288;2023-04-03T01:25:18;3.47;;;1.65;;
32200;SDS011;18701;45.588;5.288;2023-04-03T01:27:44;1.90;;;1.38;;
32200;SDS011;18701;45.588;5.288;2023-04-03T01:30:10;3.83;;;1.92;;
32200;SDS011;18701;45.588;5.288;2023-04-03T01:32:37;3.72;;;1.75;;
32200;SDS011;18701;45.588;5.288;2023-04-03T01:35:02;3.15;;;1.77;;
32200;SDS011;18701;45.588;5.288;2023-04-03T01:37:28;2.95;;;1.40;;
32200;SDS011;18701;45.588;5.288;2023-04-03T01:39:54;1.65;;;1.17;;
32200;SDS011;18701;45.588;5.288;2023-04-03T01:42:20;3.22;;;1.38;;
32200;SDS011;18701;45.588;5.288;2023-04-03T01:44:45;3.85;;;1.33;;
32200;SDS011;18701;45.588;5.288;2023-04-03T01:47:11;2.25;;;1.17;;
32200;SDS011;18701;45.588;5.288;2023-04-03T01:49:37;1.83;;;1.08;;
32200;SDS011;18701;45.588;5.288;2023-04-03T01:52:02;3.05;;;0.90;;
32200;SDS011;18701;45.588;5.288;2023-04-03T01:54:28;1.65;;;1.13;;
32200;SDS011;18701;45.588;5.288;2023-04-03T01:56:54;1.83;;;1.08;;
32200;SDS011;18701;45.588;5.288;2023-04-03T01:59:19;1.10;;;0.93;;
32200;SDS011;18701;45.588;5.288;2023-04-03T02:01:47;1.83;;;1.20;;
32200;SDS011;18701;45.588;5.288;2023-04-03T02:04:13;3.63;;;1.10;;
32200;SDS011;18701;45.588;5.288;2023-04-03T02:06:38;2.08;;;1.10;;
32200;SDS011;18701;45.588;5.288;2023-04-03T02:09:04;2.30;;;1.13;;
32200;SDS011;18701;45.588;5.288;2023-04-03T02:11:30;2.88;;;1.05;;
32200;SDS011;18701;45.588;5.288;2023-04-03T02:13:56;2.10;;;1.40;;
32200;SDS011;18701;45.588;5.288;2023-04-03T02:16:22;2.03;;;1.30;;
32200;SDS011;18701;45.588;5.288;2023-04-03T02:18:47;3.80;;;1.20;;
32200;SDS011;18701;45.588;5.288;2023-04-03T02:21:13;2.53;;;1.10;;
32200;SDS011;18701;45.588;5.288;2023-04-03T02:23:38;7.60;;;2.03;;
32200;SDS011;18701;45.588;5.288;2023-04-03T02:26:08;2.65;;;1.33;;
32200;SDS011;18701;45.588;5.288;2023-04-03T02:28:36;3.78;;;1.20;;
32200;SDS011;18701;45.588;5.288;2023-04-03T02:31:01;1.63;;;1.10;;
32200;SDS011;18701;45.588;5.288;2023-04-03T02:33:27;1.60;;;1.17;;
32200;SDS011;18701;45.588;5.288;2023-04-03T02:35:54;2.92;;;0.95;;
32200;SDS011;18701;45.588;5.288;2023-04-03T02:38:20;2.15;;;1.02;;
32200;SDS011;18701;45.588;5.288;2023-04-03T02:40:47;1.70;;;1.20;;
32200;SDS011;18701;45.588;5.288;2023-04-03T02:43:12;3.10;;;1.00;;
32200;SDS011;18701;45.588;5.288;2023-04-03T02:45:38;1.35;;;0.93;;
32200;SDS011;18701;45.588;5.288;2023-04-03T02:48:03;1.23;;;0.80;;
32200;SDS011;18701;45.588;5.288;2023-04-03T02:50:29;2.25;;;1.50;;
32200;SDS011;18701;45.588;5.288;2023-04-03T02:52:55;1.80;;;1.23;;
32200;SDS011;18701;45.588;5.288;2023-04-03T02:55:23;1.33;;;0.90;;
32200;SDS011;18701;45.588;5.288;2023-04-03T02:57:49;1.63;;;1.33;;
32200;SDS011;18701;45.588;5.288;2023-04-03T03:00:15;3.78;;;1.08;;
32200;SDS011;18701;45.588;5.288;2023-04-03T03:02:40;2.42;;;1.40;;
32200;SDS011;18701;45.588;5.288;2023-04-03T03:05:06;2.45;;;1.00;;
32200;SDS011;18701;45.588;5.288;2023-04-03T03:07:33;2.38;;;1.10;;
32200;SDS011;18701;45.588;5.288;2023-04-03T03:09:59;2.03;;;1.27;;
32200;SDS011;18701;45.588;5.288;2023-04-03T03:12:24;2.70;;;1.30;;
32200;SDS011;18701;45.588;5.288;2023-04-03T03:14:52;1.67;;;1.15;;
32200;SDS011;18701;45.588;5.288;2023-04-03T03:17:18;2.80;;;1.27;;
32200;SDS011;18701;45.588;5.288;2023-04-03T03:19:44;1.63;;;0.93;;
32200;SDS011;18701;45.588;5.288;2023-04-03T03:22:10;4.55;;;1.20;;
32200;SDS011;18701;45.588;5.288;2023-04-03T03:24:36;4.38;;;1.38;;
32200;SDS011;18701;45.588;5.288;2023-04-03T03:27:02;1.52;;;1.23;;
32200;SDS011;18701;45.588;5.288;2023-04-03T03:29:27;1.30;;;1.10;;
32200;SDS011;18701;45.588;5.288;2023-04-03T03:31:53;2.28;;;1.30;;
32200;SDS011;18701;45.588;5.288;2023-04-03T03:34:18;1.67;;;1.33;;
32200;SDS011;18701;45.588;5.288;2023-04-03T03:36:44;2.75;;;1.50;;
32200;SDS011;18701;45.588;5.288;2023-04-03T03:39:10;3.17;;;1.50;;
32200;SDS011;18701;45.588;5.288;2023-04-03T03:41:36;2.63;;;1.60;;
32200;SDS011;18701;45.588;5.288;2023-04-03T03:44:01;3.10;;;1.60;;
32200;SDS011;18701;45.588;5.288;2023-04-03T03:46:27;2.05;;;1.63;;
32200;SDS011;18701;45.588;5.288;2023-04-03T03:48:52;1.58;;;1.48;;
32200;SDS011;18701;45.588;5.288;2023-04-03T03:51:18;3.72;;;1.50;;
32200;SDS011;18701;45.588;5.288;2023-04-03T03:53:43;4.65;;;2.05;;
32200;SDS011;18701;45.588;5.288;2023-04-03T03:56:09;3.42;;;2.22;;
32200;SDS011;18701;45.588;5.288;2023-04-03T03:58:35;2.70;;;1.67;;
32200;SDS011;18701;45.588;5.288;2023-04-03T04:01:04;2.42;;;2.20;;
32200;SDS011;18701;45.588;5.288;2023-04-03T04:03:31;2.42;;;1.73;;
32200;SDS011;18701;45.588;5.288;2023-04-03T04:05:57;2.17;;;1.67;;
32200;SDS011;18701;45.588;5.288;2023-04-03T04:08:23;3.30;;;1.55;;
32200;SDS011;18701;45.588;5.288;2023-04-03T04:10:49;3.45;;;2.10;;
32200;SDS011;18701;45.588;5.288;2023-04-03T04:13:14;2.22;;;1.67;;
32200;SDS011;18701;45.588;5.288;2023-04-03T04:15:40;2.70;;;1.70;;
32200;SDS011;18701;45.588;5.288;2023-04-03T04:18:06;5.72;;;1.90;;
32200;SDS011;18701;45.588;5.288;2023-04-03T04:20:32;5.18;;;2.15;;
32200;SDS011;18701;45.588;5.288;2023-04-03T04:22:57;2.38;;;1.77;;
32200;SDS011;18701;45.588;5.288;2023-04-03T04:25:23;3.42;;;1.98;;
32200;SDS011;18701;45.588;5.288;2023-04-03T04:27:49;2.97;;;2.03;;
32200;SDS011;18701;45.588;5.288;2023-04-03T04:30:14;3.13;;;2.17;;
32200;SDS011;18701;45.588;5.288;2023-04-03T04:32:40;4.80;;;2.03;;
32200;SDS011;18701;45.588;5.288;2023-04-03T04:35:06;2.80;;;1.67;;
32200;SDS011;18701;45.588;5.288;2023-04-03T04:37:32;2.60;;;2.00;;
32200;SDS011;18701;45.588;5.288;2023-04-03T04:39:57;2.05;;;1.90;;
32200;SDS011;18701;45.588;5.288;2023-04-03T04:42:23;3.78;;;2.33;;
32200;SDS011;18701;45.588;5.288;2023-04-03T04:44:49;4.85;;;1.83;;
32200;SDS011;18701;45.588;5.288;2023-04-03T04:47:15;2.35;;;2.13;;
32200;SDS011;18701;45.588;5.288;2023-04-03T04:49:40;5.63;;;2.35;;
32200;SDS011;18701;45.588;5.288;2023-04-03T04:52:06;2.72;;;2.40;;
32200;SDS011;18701;45.588;5.288;2023-04-03T04:54:31;3.45;;;2.17;;
32200;SDS011;18701;45.588;5.288;2023-04-03T04:56:57;5.40;;;2.75;;
32200;SDS011;18701;45.588;5.288;2023-04-03T04:59:23;2.88;;;2.10;;
32200;SDS011;18701;45.588;5.288;2023-04-03T05:01:49;2.45;;;1.90;;
32200;SDS011;18701;45.588;5.288;2023-04-03T05:04:14;2.42;;;2.13;;
32200;SDS011;18701;45.588;5.288;2023-04-03T05:06:40;4.80;;;2.05;;
32200;SDS011;18701;45.588;5.288;2023-04-03T05:09:05;3.13;;;1.60;;
32200;SDS011;18701;45.588;5.288;2023-04-03T05:11:31;7.32;;;1.83;;
32200;SDS011;18701;45.588;5.288;2023-04-03T05:13:57;3.58;;;2.03;;
32200;SDS011;18701;45.588;5.288;2023-04-03T05:16:23;2.85;;;1.85;;
32200;SDS011;18701;45.588;5.288;2023-04-03T05:18:48;2.28;;;1.50;;
32200;SDS011;18701;45.588;5.288;2023-04-03T05:21:14;3.00;;;2.05;;
32200;SDS011;18701;45.588;5.288;2023-04-03T05:23:40;4.72;;;1.85;;
32200;SDS011;18701;45.588;5.288;2023-04-03T05:26:05;2.92;;;1.52;;
32200;SDS011;18701;45.588;5.288;2023-04-03T05:28:31;2.85;;;1.77;;
32200;SDS011;18701;45.588;5.288;2023-04-03T05:30:57;2.20;;;2.00;;
32200;SDS011;18701;45.588;5.288;2023-04-03T05:33:24;2.38;;;2.10;;
32200;SDS011;18701;45.588;5.288;2023-04-03T05:35:51;1.98;;;1.73;;
32200;SDS011;18701;45.588;5.288;2023-04-03T05:38:18;2.33;;;2.00;;
32200;SDS011;18701;45.588;5.288;2023-04-03T05:40:43;4.47;;;2.08;;
32200;SDS011;18701;45.588;5.288;2023-04-03T05:43:09;2.00;;;1.70;;
32200;SDS011;18701;45.588;5.288;2023-04-03T05:45:35;2.00;;;1.80;;
32200;SDS011;18701;45.588;5.288;2023-04-03T05:48:00;2.85;;;2.05;;
32200;SDS011;18701;45.588;5.288;2023-04-03T05:50:26;2.30;;;2.10;;
32200;SDS011;18701;45.588;5.288;2023-04-03T05:52:52;2.35;;;1.80;;
32200;SDS011;18701;45.588;5.288;2023-04-03T05:55:21;4.97;;;2.08;;
32200;SDS011;18701;45.588;5.288;2023-04-03T05:57:47;3.78;;;1.80;;
32200;SDS011;18701;45.588;5.288;2023-04-03T06:00:13;7.53;;;2.20;;
32200;SDS011;18701;45.588;5.288;2023-04-03T06:02:40;3.97;;;2.45;;
32200;SDS011;18701;45.588;5.288;2023-04-03T06:05:07;2.65;;;2.35;;
32200;SDS011;18701;45.588;5.288;2023-04-03T06:07:34;4.88;;;2.40;;
32200;SDS011;18701;45.588;5.288;2023-04-03T06:10:00;2.42;;;2.22;;
32200;SDS011;18701;45.588;5.288;2023-04-03T06:12:26;4.22;;;2.67;;
32200;SDS011;18701;45.588;5.288;2023-04-03T06:14:54;4.28;;;1.98;;
32200;SDS011;18701;45.588;5.288;2023-04-03T06:17:20;3.75;;;2.92;;
32200;SDS011;18701;45.588;5.288;2023-04-03T06:19:46;3.92;;;2.65;;
32200;SDS011;18701;45.588;5.288;2023-04-03T06:22:11;5.13;;;2.00;;
32200;SDS011;18701;45.588;5.288;2023-04-03T06:24:37;2.55;;;2.20;;
32200;SDS011;18701;45.588;5.288;2023-04-03T06:27:03;3.20;;;2.40;;
32200;SDS011;18701;45.588;5.288;2023-04-03T06:29:29;2.72;;;2.30;;
32200;SDS011;18701;45.588;5.288;2023-04-03T06:31:55;2.08;;;1.80;;
32200;SDS011;18701;45.588;5.288;2023-04-03T06:34:24;6.20;;;2.55;;
32200;SDS011;18701;45.588;5.288;2023-04-03T06:36:50;3.05;;;2.63;;
32200;SDS011;18701;45.588;5.288;2023-04-03T06:39:17;3.97;;;3.22;;
32200;SDS011;18701;45.588;5.288;2023-04-03T06:41:45;6.13;;;2.85;;
32200;SDS011;18701;45.588;5.288;2023-04-03T06:44:11;11.40;;;3.15;;
32200;SDS011;18701;45.588;5.288;2023-04-03T06:46:38;7.28;;;3.60;;
32200;SDS011;18701;45.588;5.288;2023-04-03T06:49:04;3.47;;;2.63;;
32200;SDS011;18701;45.588;5.288;2023-04-03T06:51:33;4.95;;;3.67;;
32200;SDS011;18701;45.588;5.288;2023-04-03T06:53:59;3.60;;;3.30;;
32200;SDS011;18701;45.588;5.288;2023-04-03T06:56:25;6.38;;;3.50;;
32200;SDS011;18701;45.588;5.288;2023-04-03T06:58:52;3.60;;;3.00;;
32200;SDS011;18701;45.588;5.288;2023-04-03T07:01:22;7.03;;;2.97;;
32200;SDS011;18701;45.588;5.288;2023-04-03T07:03:49;3.15;;;2.53;;
32200;SDS011;18701;45.588;5.288;2023-04-03T07:06:16;3.80;;;2.65;;
32200;SDS011;18701;45.588;5.288;2023-04-03T07:08:42;5.43;;;3.40;;
32200;SDS011;18701;45.588;5.288;2023-04-03T07:11:09;4.70;;;3.53;;
32200;SDS011;18701;45.588;5.288;2023-04-03T07:13:35;13.18;;;3.42;;
32200;SDS011;18701;45.588;5.288;2023-04-03T07:16:01;7.57;;;3.50;;
32200;SDS011;18701;45.588;5.288;2023-04-03T07:18:28;4.68;;;3.80;;
32200;SDS011;18701;45.588;5.288;2023-04-03T07:20:54;6.22;;;4.15;;
32200;SDS011;18701;45.588;5.288;2023-04-03T07:23:20;5.07;;;4.35;;
32200;SDS011;18701;45.588;5.288;2023-04-03T07:25:46;7.68;;;4.95;;
32200;SDS011;18701;45.588;5.288;2023-04-03T07:28:13;6.93;;;5.35;;
32200;SDS011;18701;45.588;5.288;2023-04-03T07:30:49;6.85;;;5.78;;
32200;SDS011;18701;45.588;5.288;2023-04-03T07:33:17;9.25;;;6.55;;
32200;SDS011;18701;45.588;5.288;2023-04-03T07:35:44;8.15;;;6.68;;
32200;SDS011;18701;45.588;5.288;2023-04-03T07:38:10;10.85;;;7.32;;
32200;SDS011;18701;45.588;5.288;2023-04-03T07:40:36;8.82;;;7.40;;
32200;SDS011;18701;45.588;5.288;2023-04-03T07:43:02;8.70;;;7.03;;
32200;SDS011;18701;45.588;5.288;2023-04-03T07:45:29;8.48;;;6.65;;
32200;SDS011;18701;45.588;5.288;2023-04-03T07:47:55;8.68;;;6.90;;
32200;SDS011;18701;45.588;5.288;2023-04-03T07:50:20;8.82;;;7.13;;
32200;SDS011;18701;45.588;5.288;2023-04-03T07:52:46;11.77;;;7.07;;
32200;SDS011;18701;45.588;5.288;2023-04-03T07:55:12;12.15;;;7.43;;
32200;SDS011;18701;45.588;5.288;2023-04-03T07:57:37;9.98;;;7.53;;
32200;SDS011;18701;45.588;5.288;2023-04-03T08:00:04;10.18;;;7.72;;
32200;SDS011;18701;45.588;5.288;2023-04-03T08:02:30;10.32;;;8.15;;
32200;SDS011;18701;45.588;5.288;2023-04-03T08:04:57;12.43;;;7.72;;
32200;SDS011;18701;45.588;5.288;2023-04-03T08:07:23;11.20;;;7.55;;
32200;SDS011;18701;45.588;5.288;2023-04-03T08:09:49;17.38;;;9.77;;
32200;SDS011;18701;45.588;5.288;2023-04-03T08:12:15;10.80;;;8.30;;
32200;SDS011;18701;45.588;5.288;2023-04-03T08:14:41;14.32;;;9.15;;
32200;SDS011;18701;45.588;5.288;2023-04-03T08:17:07;11.30;;;8.52;;
32200;SDS011;18701;45.588;5.288;2023-04-03T08:19:36;10.07;;;7.88;;
32200;SDS011;18701;45.588;5.288;2023-04-03T08:22:05;20.85;;;9.68;;
32200;SDS011;18701;45.588;5.288;2023-04-03T08:24:32;11.63;;;8.90;;
32200;SDS011;18701;45.588;5.288;2023-04-03T08:26:58;10.95;;;7.95;;
32200;SDS011;18701;45.588;5.288;2023-04-03T08:29:24;14.75;;;9.35;;
32200;SDS011;18701;45.588;5.288;2023-04-03T08:31:50;11.13;;;7.55;;
32200;SDS011;18701;45.588;5.288;2023-04-03T08:34:16;8.75;;;7.10;;
32200;SDS011;18701;45.588;5.288;2023-04-03T08:36:43;10.00;;;7.72;;
32200;SDS011;18701;45.588;5.288;2023-04-03T08:39:09;9.63;;;6.93;;
32200;SDS011;18701;45.588;5.288;2023-04-03T08:41:36;13.52;;;7.15;;
32200;SDS011;18701;45.588;5.288;2023-04-03T08:49:25;9.65;;;6.65;;
32200;SDS011;18701;45.588;5.288;2023-04-03T08:51:56;9.20;;;7.13;;
32200;SDS011;18701;45.588;5.288;2023-04-03T08:54:33;10.60;;;6.90;;
32200;SDS011;18701;45.588;5.288;2023-04-03T08:57:04;14.27;;;6.70;;
32200;SDS011;18701;45.588;5.288;2023-04-03T08:59:34;10.40;;;6.90;;
32200;SDS011;18701;45.588;5.288;2023-04-03T09:02:04;11.90;;;6.57;;
32200;SDS011;18701;45.588;5.288;2023-04-03T09:04:41;10.48;;;6.13;;
32200;SDS011;18701;45.588;5.288;2023-04-03T09:07:08;12.07;;;7.13;;
32200;SDS011;18701;45.588;5.288;2023-04-03T09:09:42;6.90;;;6.18;;
32200;SDS011;18701;45.588;5.288;2023-04-03T09:23:15;7.63;;;5.30;;
32200;SDS011;18701;45.588;5.288;2023-04-03T09:25:45;7.35;;;4.78;;
32200;SDS011;18701;45.588;5.288;2023-04-03T09:28:11;7.45;;;5.20;;
32200;SDS011;18701;45.588;5.288;2023-04-03T09:30:37;6.97;;;5.10;;
32200;SDS011;18701;45.588;5.288;2023-04-03T09:33:03;5.35;;;4.82;;
32200;SDS011;18701;45.588;5.288;2023-04-03T09:35:29;8.20;;;4.30;;
32200;SDS011;18701;45.588;5.288;2023-04-03T09:38:00;6.45;;;4.75;;
32200;SDS011;18701;45.588;5.288;2023-04-03T09:43:29;9.93;;;4.93;;
32200;SDS011;18701;45.588;5.288;2023-04-03T09:46:17;7.78;;;5.40;;
32200;SDS011;18701;45.588;5.288;2023-04-03T09:48:57;6.22;;;4.65;;
32200;SDS011;18701;45.588;5.288;2023-04-03T09:51:29;6.70;;;5.50;;
32200;SDS011;18701;45.588;5.288;2023-04-03T09:53:56;6.90;;;4.95;;
32200;SDS011;18701;45.588;5.288;2023-04-03T09:56:26;5.55;;;4.43;;
32200;SDS011;18701;45.588;5.288;2023-04-03T10:01:34;6.10;;;5.10;;
32200;SDS011;18701;45.588;5.288;2023-04-03T10:04:02;5.78;;;4.50;;
32200;SDS011;18701;45.588;5.288;2023-04-03T10:06:39;10.32;;;5.45;;
32200;SDS011;18701;45.588;5.288;2023-04-03T10:09:19;10.82;;;5.35;;
32200;SDS011;18701;45.588;5.288;2023-04-03T10:12:31;7.53;;;5.28;;
32200;SDS011;18701;45.588;5.288;2023-04-03T10:14:38;10.15;;;5.80;;
32200;SDS011;18701;45.588;5.288;2023-04-03T10:17:14;8.88;;;5.13;;
32200;SDS011;18701;45.588;5.288;2023-04-03T10:23:00;5.93;;;5.18;;
32200;SDS011;18701;45.588;5.288;2023-04-03T10:28:06;8.43;;;5.22;;
32200;SDS011;18701;45.588;5.288;2023-04-03T10:41:15;9.13;;;5.78;;
32200;SDS011;18701;45.588;5.288;2023-04-03T10:43:50;8.90;;;5.75;;
32200;SDS011;18701;45.588;5.288;2023-04-03T10:46:38;5.90;;;5.30;;
32200;SDS011;18701;45.588;5.288;2023-04-03T10:49:22;5.78;;;4.90;;
32200;SDS011;18701;45.588;5.288;2023-04-03T10:54:49;5.88;;;4.47;;
32200;SDS011;18701;45.588;5.288;2023-04-03T10:57:17;6.40;;;4.68;;
32200;SDS011;18701;45.588;5.288;2023-04-03T10:59:45;4.75;;;4.03;;
32200;SDS011;18701;45.588;5.288;2023-04-03T11:04:41;10.73;;;4.95;;
32200;SDS011;18701;45.588;5.288;2023-04-03T11:07:12;5.40;;;4.57;;
32200;SDS011;18701;45.588;5.288;2023-04-03T11:09:43;6.60;;;5.30;;
32200;SDS011;18701;45.588;5.288;2023-04-03T11:12:25;5.75;;;4.75;;
32200;SDS011;18701;45.588;5.288;2023-04-03T11:15:12;6.63;;;4.60;;
32200;SDS011;18701;45.588;5.288;2023-04-03T11:17:41;6.05;;;5.03;;
32200;SDS011;18701;45.588;5.288;2023-04-03T11:20:23;4.65;;;4.05;;
32200;SDS011;18701;45.588;5.288;2023-04-03T11:25:51;6.53;;;4.63;;
32200;SDS011;18701;45.588;5.288;2023-04-03T11:28:21;6.57;;;4.88;;
32200;SDS011;18701;45.588;5.288;2023-04-03T11:31:09;5.20;;;4.40;;
32200;SDS011;18701;45.588;5.288;2023-04-03T11:33:42;6.55;;;4.53;;
32200;SDS011;18701;45.588;5.288;2023-04-03T11:38:47;5.60;;;4.47;;
32200;SDS011;18701;45.588;5.288;2023-04-03T11:41:17;9.68;;;4.45;;
32200;SDS011;18701;45.588;5.288;2023-04-03T12:03:29;7.65;;;4.30;;
32200;SDS011;18701;45.588;5.288;2023-04-03T12:34:51;5.93;;;4.45;;
32200;SDS011;18701;45.588;5.288;2023-04-03T12:40:37;6.57;;;3.90;;
32200;SDS011;18701;45.588;5.288;2023-04-03T12:43:16;4.43;;;3.60;;
32200;SDS011;18701;45.588;5.288;2023-04-03T12:48:32;7.30;;;4.60;;
32200;SDS011;18701;45.588;5.288;2023-04-03T12:51:03;4.53;;;3.58;;
32200;SDS011;18701;45.588;5.288;2023-04-03T12:53:33;6.68;;;4.05;;
32200;SDS011;18701;45.588;5.288;2023-04-03T12:58:53;6.20;;;3.42;;
32200;SDS011;18701;45.588;5.288;2023-04-03T13:01:24;7.70;;;4.25;;
32200;SDS011;18701;45.588;5.288;2023-04-03T13:03:53;5.57;;;3.97;;
32200;SDS011;18701;45.588;5.288;2023-04-03T13:06:22;4.70;;;3.92;;
32200;SDS011;18701;45.588;5.288;2023-04-03T13:08:53;6.72;;;4.07;;
32200;SDS011;18701;45.588;5.288;2023-04-03T13:11:23;5.13;;;4.22;;
32200;SDS011;18701;45.588;5.288;2023-04-03T13:14:00;6.00;;;3.40;;
32200;SDS011;18701;45.588;5.288;2023-04-03T13:16:30;5.25;;;3.90;;
32200;SDS011;18701;45.588;5.288;2023-04-03T13:18:57;7.28;;;4.00;;
32200;SDS011;18701;45.588;5.288;2023-04-03T13:21:26;4.15;;;3.20;;
32200;SDS011;18701;45.588;5.288;2023-04-03T13:23:57;4.57;;;3.90;;
32200;SDS011;18701;45.588;5.288;2023-04-03T13:26:27;5.93;;;3.50;;
32200;SDS011;18701;45.588;5.288;2023-04-03T13:28:59;4.15;;;3.10;;
32200;SDS011;18701;45.588;5.288;2023-04-03T13:31:33;5.95;;;3.60;;
32200;SDS011;18701;45.588;5.288;2023-04-03T13:34:16;5.25;;;3.35;;
32200;SDS011;18701;45.588;5.288;2023-04-03T13:41:43;5.53;;;2.85;;
32200;SDS011;18701;45.588;5.288;2023-04-03T13:44:31;3.65;;;2.47;;
32200;SDS011;18701;45.588;5.288;2023-04-03T13:47:00;7.95;;;4.00;;
32200;SDS011;18701;45.588;5.288;2023-04-03T13:49:42;3.90;;;2.92;;
32200;SDS011;18701;45.588;5.288;2023-04-03T13:55:01;5.22;;;2.90;;
32200;SDS011;18701;45.588;5.288;2023-04-03T13:57:48;2.90;;;2.53;;
32200;SDS011;18701;45.588;5.288;2023-04-03T14:00:30;2.40;;;2.17;;
32200;SDS011;18701;45.588;5.288;2023-04-03T14:02:56;5.32;;;2.55;;
32200;SDS011;18701;45.588;5.288;2023-04-03T14:05:23;3.05;;;1.80;;
32200;SDS011;18701;45.588;5.288;2023-04-03T14:07:50;2.60;;;1.83;;
32200;SDS011;18701;45.588;5.288;2023-04-03T14:10:17;2.58;;;2.10;;
32200;SDS011;18701;45.588;5.288;2023-04-03T14:12:42;4.43;;;2.38;;
32200;SDS011;18701;45.588;5.288;2023-04-03T14:15:19;6.40;;;2.25;;
32200;SDS011;18701;45.588;5.288;2023-04-03T14:17:49;2.38;;;1.95;;
32200;SDS011;18701;45.588;5.288;2023-04-03T14:20:17;3.97;;;2.38;;
32200;SDS011;18701;45.588;5.288;2023-04-03T14:22:46;3.45;;;2.03;;
32200;SDS011;18701;45.588;5.288;2023-04-03T14:25:13;2.58;;;2.10;;
32200;SDS011;18701;45.588;5.288;2023-04-03T14:27:41;3.35;;;2.08;;
32200;SDS011;18701;45.588;5.288;2023-04-03T14:30:16;2.90;;;1.88;;
32200;SDS011;18701;45.588;5.288;2023-04-03T14:35:12;5.05;;;1.80;;
32200;SDS011;18701;45.588;5.288;2023-04-03T14:37:38;2.75;;;1.83;;
32200;SDS011;18701;45.588;5.288;2023-04-03T14:40:04;6.90;;;2.20;;
32200;SDS011;18701;45.588;5.288;2023-04-03T14:42:33;3.67;;;2.10;;
32200;SDS011;18701;45.588;5.288;2023-04-03T14:45:01;2.15;;;1.75;;
32200;SDS011;18701;45.588;5.288;2023-04-03T14:47:29;6.78;;;1.88;;
32200;SDS011;18701;45.588;5.288;2023-04-03T14:49:55;2.00;;;1.77;;
32200;SDS011;18701;45.588;5.288;2023-04-03T14:52:25;4.18;;;2.63;;
32200;SDS011;18701;45.588;5.288;2023-04-03T14:54:56;4.43;;;2.47;;
32200;SDS011;18701;45.588;5.288;2023-04-03T14:57:28;2.35;;;2.00;;
32200;SDS011;18701;45.588;5.288;2023-04-03T14:59:55;3.00;;;2.25;;
32200;SDS011;18701;45.588;5.288;2023-04-03T15:02:36;4.28;;;2.17;;
32200;SDS011;18701;45.588;5.288;2023-04-03T15:05:04;5.00;;;2.28;;
32200;SDS011;18701;45.588;5.288;2023-04-03T15:07:34;4.20;;;2.70;;
32200;SDS011;18701;45.588;5.288;2023-04-03T15:12:52;2.53;;;2.03;;
32200;SDS011;18701;45.588;5.288;2023-04-03T15:15:19;4.18;;;2.28;;
32200;SDS011;18701;45.588;5.288;2023-04-03T15:17:46;2.13;;;1.65;;
32200;SDS011;18701;45.588;5.288;2023-04-03T15:20:16;4.45;;;1.60;;
32200;SDS011;18701;45.588;5.288;2023-04-03T15:22:44;2.28;;;1.63;;
32200;SDS011;18701;45.588;5.288;2023-04-03T15:25:11;3.45;;;1.60;;
32200;SDS011;18701;45.588;5.288;2023-04-03T15:27:39;3.00;;;1.80;;
32200;SDS011;18701;45.588;5.288;2023-04-03T15:30:06;2.30;;;1.70;;
32200;SDS011;18701;45.588;5.288;2023-04-03T15:32:33;3.45;;;2.10;;
32200;SDS011;18701;45.588;5.288;2023-04-03T15:35:00;2.92;;;1.80;;
32200;SDS011;18701;45.588;5.288;2023-04-03T15:37:26;3.25;;;1.38;;
32200;SDS011;18701;45.588;5.288;2023-04-03T15:39:52;8.02;;;1.90;;
32200;SDS011;18701;45.588;5.288;2023-04-03T15:42:18;5.53;;;1.70;;
32200;SDS011;18701;45.588;5.288;2023-04-03T15:44:44;2.42;;;1.60;;
32200;SDS011;18701;45.588;5.288;2023-04-03T15:47:09;3.25;;;1.40;;
32200;SDS011;18701;45.588;5.288;2023-04-03T15:49:35;2.00;;;1.77;;
32200;SDS011;18701;45.588;5.288;2023-04-03T15:52:01;4.55;;;1.17;;
32200;SDS011;18701;45.588;5.288;2023-04-03T15:54:27;2.53;;;1.38;;
32200;SDS011;18701;45.588;5.288;2023-04-03T15:56:54;1.88;;;1.40;;
32200;SDS011;18701;45.588;5.288;2023-04-03T15:59:20;4.30;;;1.92;;
32200;SDS011;18701;45.588;5.288;2023-04-03T16:01:47;2.25;;;1.52;;
32200;SDS011;18701;45.588;5.288;2023-04-03T16:04:15;5.28;;;1.40;;
32200;SDS011;18701;45.588;5.288;2023-04-03T16:06:41;2.75;;;1.33;;
32200;SDS011;18701;45.588;5.288;2023-04-03T16:09:07;3.30;;;2.13;;
32200;SDS011;18701;45.588;5.288;2023-04-03T16:11:33;4.30;;;1.88;;
32200;SDS011;18701;45.588;5.288;2023-04-03T16:14:02;3.70;;;1.80;;
32200;SDS011;18701;45.588;5.288;2023-04-03T16:16:27;4.38;;;1.63;;
32200;SDS011;18701;45.588;5.288;2023-04-03T16:18:54;5.25;;;1.40;;
32200;SDS011;18701;45.588;5.288;2023-04-03T16:21:21;3.03;;;1.38;;
32200;SDS011;18701;45.588;5.288;2023-04-03T16:23:47;2.45;;;1.38;;
32200;SDS011;18701;45.588;5.288;2023-04-03T16:26:13;1.75;;;1.10;;
32200;SDS011;18701;45.588;5.288;2023-04-03T16:28:39;4.07;;;1.10;;
32200;SDS011;18701;45.588;5.288;2023-04-03T16:31:06;1.60;;;1.00;;
32200;SDS011;18701;45.588;5.288;2023-04-03T16:33:32;5.47;;;0.93;;
32200;SDS011;18701;45.588;5.288;2023-04-03T16:35:58;0.77;;;0.57;;
32200;SDS011;18701;45.588;5.288;2023-04-03T16:38:24;2.47;;;1.17;;
32200;SDS011;18701;45.588;5.288;2023-04-03T16:40:52;1.70;;;0.98;;
32200;SDS011;18701;45.588;5.288;2023-04-03T16:43:21;2.45;;;0.95;;
32200;SDS011;18701;45.588;5.288;2023-04-03T16:45:47;1.33;;;0.95;;
32200;SDS011;18701;45.588;5.288;2023-04-03T16:48:12;4.40;;;1.30;;
32200;SDS011;18701;45.588;5.288;2023-04-03T16:50:38;2.72;;;0.68;;
32200;SDS011;18701;45.588;5.288;2023-04-03T16:53:04;2.67;;;0.80;;
32200;SDS011;18701;45.588;5.288;2023-04-03T16:55:33;1.88;;;0.80;;
32200;SDS011;18701;45.588;5.288;2023-04-03T16:57:58;1.55;;;0.80;;
32200;SDS011;18701;45.588;5.288;2023-04-03T17:00:24;2.22;;;0.93;;